sensor_id;sensor_type;location;lat;lon;timestamp;pressure;altitude;pressure_sealevel;temperature;humidity
26657;BME280;14279;50.010;8.260;2023-08-24T00:04:24;100604.81;;;22.81;60.51
26657;BME280;14279;50.010;8.260;2023-08-24T00:06:49;100608.72;;;22.77;60.44
26657;BME280;14279;50.010;8.260;2023-08-24T00:09:14;100610.53;;;22.77;60.45
26657;BME280;14279;50.010;8.260;2023-08-24T00:11:40;100603.06;;;22.62;60.35
26657;BME280;14279;50.010;8.260;2023-08-24T00:14:05;100606.69;;;22.42;61.16
26657;BME280;14279;50.010;8.260;2023-08-24T00:16:31;100599.16;;;22.47;61.31
26657;BME280;14279;50.010;8.260;2023-08-24T00:18:57;100600.69;;;22.59;61.30
26657;BME280;14279;50.010;8.260;2023-08-24T00:21:22;100594.13;;;22.54;62.04
26657;BME280;14279;50.010;8.260;2023-08-24T00:23:49;100601.38;;;22.61;61.99
26657;BME280;14279;50.010;8.260;2023-08-24T00:26:15;100603.47;;;22.58;62.29
26657;BME280;14279;50.010;8.260;2023-08-24T00:28:43;100594.97;;;22.54;62.27
26657;BME280;14279;50.010;8.260;2023-08-24T00:31:09;100604.44;;;22.57;62.34
26657;BME280;14279;50.010;8.260;2023-08-24T00:33:34;100590.25;;;22.48;63.15
26657;BME280;14279;50.010;8.260;2023-08-24T00:36:00;100596.25;;;22.50;63.03
26657;BME280;14279;50.010;8.260;2023-08-24T00:38:26;100599.16;;;22.57;63.33
26657;BME280;14279;50.010;8.260;2023-08-24T00:40:51;100595.97;;;22.33;64.14
26657;BME280;14279;50.010;8.260;2023-08-24T00:43:18;100601.81;;;22.47;63.84
26657;BME280;14279;50.010;8.260;2023-08-24T00:45:47;100609.94;;;22.26;64.65
26657;BME280;14279;50.010;8.260;2023-08-24T00:48:12;100612.16;;;21.91;66.50
26657;BME280;14279;50.010;8.260;2023-08-24T00:50:37;100603.50;;;21.79;67.13
26657;BME280;14279;50.010;8.260;2023-08-24T00:53:03;100613.00;;;21.82;66.38
26657;BME280;14279;50.010;8.260;2023-08-24T00:55:28;100611.44;;;21.69;67.07
26657;BME280;14279;50.010;8.260;2023-08-24T00:57:54;100616.06;;;21.77;66.98
26657;BME280;14279;50.010;8.260;2023-08-24T01:00:20;100615.91;;;21.69;66.99
26657;BME280;14279;50.010;8.260;2023-08-24T01:02:47;100619.00;;;21.74;67.03
26657;BME280;14279;50.010;8.260;2023-08-24T01:05:12;100617.25;;;21.53;67.80
26657;BME280;14279;50.010;8.260;2023-08-24T01:17:43;100604.78;;;22.04;66.06
26657;BME280;14279;50.010;8.260;2023-08-24T01:20:10;100602.25;;;22.03;65.05
26657;BME280;14279;50.010;8.260;2023-08-24T01:38:54;100594.19;;;22.04;65.67
26657;BME280;14279;50.010;8.260;2023-08-24T01:41:26;100584.28;;;21.87;65.67
26657;BME280;14279;50.010;8.260;2023-08-24T01:43:54;100590.13;;;21.81;65.69
26657;BME280;14279;50.010;8.260;2023-08-24T02:03:31;100582.88;;;22.02;65.41
26657;BME280;14279;50.010;8.260;2023-08-24T02:05:56;100579.94;;;22.05;65.32
26657;BME280;14279;50.010;8.260;2023-08-24T02:08:22;100570.75;;;22.00;65.26
26657;BME280;14279;50.010;8.260;2023-08-24T02:10:47;100581.88;;;22.13;64.11
26657;BME280;14279;50.010;8.260;2023-08-24T02:13:12;100575.47;;;22.06;64.55
26657;BME280;14279;50.010;8.260;2023-08-24T02:15:38;100573.41;;;22.00;64.62
26657;BME280;14279;50.010;8.260;2023-08-24T02:18:04;100561.50;;;22.04;64.66
26657;BME280;14279;50.010;8.260;2023-08-24T02:20:30;100556.53;;;22.01;64.93
26657;BME280;14279;50.010;8.260;2023-08-24T02:22:55;100551.19;;;22.20;64.29
26657;BME280;14279;50.010;8.260;2023-08-24T02:25:20;100544.22;;;22.19;64.56
26657;BME280;14279;50.010;8.260;2023-08-24T02:27:46;100541.84;;;22.16;64.70
26657;BME280;14279;50.010;8.260;2023-08-24T02:30:11;100542.41;;;22.10;64.18
26657;BME280;14279;50.010;8.260;2023-08-24T02:32:37;100549.38;;;22.21;63.93
26657;BME280;14279;50.010;8.260;2023-08-24T02:35:02;100539.34;;;22.15;63.58
26657;BME280;14279;50.010;8.260;2023-08-24T02:37:28;100546.19;;;22.07;64.05
26657;BME280;14279;50.010;8.260;2023-08-24T02:39:53;100532.91;;;22.17;63.70
26657;BME280;14279;50.010;8.260;2023-08-24T02:42:18;100531.78;;;22.20;63.30
26657;BME280;14279;50.010;8.260;2023-08-24T02:44:43;100531.66;;;22.21;62.93
26657;BME280;14279;50.010;8.260;2023-08-24T02:47:09;100527.63;;;22.17;63.24
26657;BME280;14279;50.010;8.260;2023-08-24T02:49:34;100521.34;;;22.18;63.40
26657;BME280;14279;50.010;8.260;2023-08-24T02:51:59;100526.47;;;22.20;63.33
26657;BME280;14279;50.010;8.260;2023-08-24T02:54:25;100526.47;;;22.20;63.77
26657;BME280;14279;50.010;8.260;2023-08-24T02:56:50;100527.59;;;22.27;63.69
26657;BME280;14279;50.010;8.260;2023-08-24T02:59:15;100519.63;;;22.27;63.54
26657;BME280;14279;50.010;8.260;2023-08-24T03:01:41;100517.97;;;22.26;63.91
26657;BME280;14279;50.010;8.260;2023-08-24T03:04:06;100508.09;;;22.09;65.05
26657;BME280;14279;50.010;8.260;2023-08-24T03:06:31;100502.38;;;22.03;65.67
26657;BME280;14279;50.010;8.260;2023-08-24T03:08:56;100507.53;;;22.05;64.74
26657;BME280;14279;50.010;8.260;2023-08-24T03:11:22;100511.97;;;22.14;63.50
26657;BME280;14279;50.010;8.260;2023-08-24T03:13:47;100502.91;;;22.17;62.37
26657;BME280;14279;50.010;8.260;2023-08-24T03:16:12;100501.53;;;22.13;61.84
26657;BME280;14279;50.010;8.260;2023-08-24T03:18:37;100503.03;;;22.25;62.52
26657;BME280;14279;50.010;8.260;2023-08-24T03:21:03;100493.16;;;22.17;61.74
26657;BME280;14279;50.010;8.260;2023-08-24T03:23:28;100484.25;;;22.09;62.29
26657;BME280;14279;50.010;8.260;2023-08-24T03:25:55;100488.94;;;22.25;62.18
26657;BME280;14279;50.010;8.260;2023-08-24T03:28:20;100479.81;;;22.37;61.87
26657;BME280;14279;50.010;8.260;2023-08-24T03:30:48;100483.72;;;22.43;61.25
26657;BME280;14279;50.010;8.260;2023-08-24T03:33:13;100484.59;;;22.33;61.42
26657;BME280;14279;50.010;8.260;2023-08-24T03:35:39;100478.03;;;22.28;61.44
26657;BME280;14279;50.010;8.260;2023-08-24T03:38:04;100468.97;;;22.30;61.65
26657;BME280;14279;50.010;8.260;2023-08-24T03:40:30;100471.09;;;22.17;61.53
26657;BME280;14279;50.010;8.260;2023-08-24T03:42:55;100468.03;;;22.21;61.88
26657;BME280;14279;50.010;8.260;2023-08-24T03:45:21;100474.38;;;22.39;61.05
26657;BME280;14279;50.010;8.260;2023-08-24T03:47:47;100473.28;;;22.31;62.02
26657;BME280;14279;50.010;8.260;2023-08-24T03:50:12;100463.50;;;22.32;62.04
26657;BME280;14279;50.010;8.260;2023-08-24T03:52:38;100451.50;;;22.28;62.09
26657;BME280;14279;50.010;8.260;2023-08-24T03:55:05;100438.81;;;22.31;62.49
26657;BME280;14279;50.010;8.260;2023-08-24T03:57:31;100444.13;;;22.31;62.76
26657;BME280;14279;50.010;8.260;2023-08-24T03:59:56;100448.03;;;22.27;62.58
26657;BME280;14279;50.010;8.260;2023-08-24T04:02:22;100441.22;;;22.25;63.31
26657;BME280;14279;50.010;8.260;2023-08-24T04:04:47;100439.56;;;22.24;62.89
26657;BME280;14279;50.010;8.260;2023-08-24T04:07:12;100429.75;;;22.24;63.30
26657;BME280;14279;50.010;8.260;2023-08-24T04:09:38;100424.34;;;22.26;63.20
26657;BME280;14279;50.010;8.260;2023-08-24T04:12:03;100429.94;;;22.22;63.08
26657;BME280;14279;50.010;8.260;2023-08-24T04:14:28;100427.97;;;22.25;63.16
26657;BME280;14279;50.010;8.260;2023-08-24T04:16:53;100437.22;;;22.11;63.37
26657;BME280;14279;50.010;8.260;2023-08-24T04:19:19;100441.25;;;22.05;63.91
26657;BME280;14279;50.010;8.260;2023-08-24T04:21:44;100448.06;;;22.17;63.50
26657;BME280;14279;50.010;8.260;2023-08-24T04:24:09;100442.91;;;22.16;63.72
26657;BME280;14279;50.010;8.260;2023-08-24T04:26:34;100441.22;;;22.25;63.63
26657;BME280;14279;50.010;8.260;2023-08-24T04:29:00;100433.97;;;22.27;63.44
26657;BME280;14279;50.010;8.260;2023-08-24T04:31:25;100415.28;;;22.18;63.52
26657;BME280;14279;50.010;8.260;2023-08-24T04:33:50;100413.31;;;22.20;63.06
26657;BME280;14279;50.010;8.260;2023-08-24T04:36:16;100444.56;;;22.17;63.57
26657;BME280;14279;50.010;8.260;2023-08-24T04:38:41;100475.47;;;21.98;64.00
26657;BME280;14279;50.010;8.260;2023-08-24T04:41:08;100480.78;;;21.88;63.79
26657;BME280;14279;50.010;8.260;2023-08-24T04:43:33;100466.97;;;21.95;63.05
26657;BME280;14279;50.010;8.260;2023-08-24T04:45:59;100480.31;;;22.03;62.65
26657;BME280;14279;50.010;8.260;2023-08-24T04:48:25;100513.50;;;22.27;62.78
26657;BME280;14279;50.010;8.260;2023-08-24T04:50:58;100528.69;;;22.34;62.64
26657;BME280;14279;50.010;8.260;2023-08-24T04:53:23;100544.03;;;22.31;62.82
26657;BME280;14279;50.010;8.260;2023-08-24T04:55:48;100568.47;;;22.44;61.96
26657;BME280;14279;50.010;8.260;2023-08-24T04:58:14;100585.22;;;22.45;60.91
26657;BME280;14279;50.010;8.260;2023-08-24T05:00:39;100597.91;;;22.51;60.74
26657;BME280;14279;50.010;8.260;2023-08-24T05:03:05;100611.03;;;22.43;61.10
26657;BME280;14279;50.010;8.260;2023-08-24T05:05:32;100621.81;;;22.21;61.77
26657;BME280;14279;50.010;8.260;2023-08-24T05:07:58;100630.59;;;22.02;62.33
26657;BME280;14279;50.010;8.260;2023-08-24T05:10:24;100640.31;;;21.82;63.58
26657;BME280;14279;50.010;8.260;2023-08-24T05:12:49;100637.13;;;21.79;64.10
26657;BME280;14279;50.010;8.260;2023-08-24T05:15:15;100635.63;;;21.96;64.06
26657;BME280;14279;50.010;8.260;2023-08-24T05:17:40;100627.94;;;21.92;64.56
26657;BME280;14279;50.010;8.260;2023-08-24T05:20:09;100629.44;;;21.85;64.86
26657;BME280;14279;50.010;8.260;2023-08-24T05:22:36;100632.00;;;21.46;67.24
26657;BME280;14279;50.010;8.260;2023-08-24T05:25:01;100629.06;;;21.39;68.35
26657;BME280;14279;50.010;8.260;2023-08-24T05:27:26;100616.69;;;21.50;68.26
26657;BME280;14279;50.010;8.260;2023-08-24T05:29:51;100622.13;;;21.48;69.02
26657;BME280;14279;50.010;8.260;2023-08-24T05:32:17;100623.13;;;21.57;68.48
26657;BME280;14279;50.010;8.260;2023-08-24T05:34:42;100621.91;;;21.61;68.27
26657;BME280;14279;50.010;8.260;2023-08-24T05:37:07;100623.34;;;21.85;67.40
26657;BME280;14279;50.010;8.260;2023-08-24T05:39:32;100620.09;;;21.91;67.08
26657;BME280;14279;50.010;8.260;2023-08-24T05:41:58;100622.22;;;21.97;66.72
26657;BME280;14279;50.010;8.260;2023-08-24T05:44:23;100630.44;;;21.94;66.62
26657;BME280;14279;50.010;8.260;2023-08-24T05:46:48;100637.28;;;21.87;67.53
26657;BME280;14279;50.010;8.260;2023-08-24T05:49:13;100638.38;;;21.84;67.99
26657;BME280;14279;50.010;8.260;2023-08-24T05:51:39;100635.63;;;21.96;67.52
26657;BME280;14279;50.010;8.260;2023-08-24T05:54:04;100629.06;;;22.19;66.77
26657;BME280;14279;50.010;8.260;2023-08-24T05:56:29;100637.28;;;22.16;66.92
26657;BME280;14279;50.010;8.260;2023-08-24T05:58:55;100635.72;;;22.04;67.92
26657;BME280;14279;50.010;8.260;2023-08-24T06:01:20;100644.00;;;22.01;68.86
26657;BME280;14279;50.010;8.260;2023-08-24T06:03:46;100637.28;;;22.06;68.63
26657;BME280;14279;50.010;8.260;2023-08-24T06:06:11;100622.19;;;22.07;69.12
26657;BME280;14279;50.010;8.260;2023-08-24T06:08:37;100619.81;;;21.84;70.47
26657;BME280;14279;50.010;8.260;2023-08-24T06:11:02;100613.00;;;21.91;70.10
26657;BME280;14279;50.010;8.260;2023-08-24T06:13:27;100611.88;;;22.04;70.27
26657;BME280;14279;50.010;8.260;2023-08-24T06:15:53;100613.56;;;22.25;69.06
26657;BME280;14279;50.010;8.260;2023-08-24T06:18:19;100617.72;;;22.37;68.26
26657;BME280;14279;50.010;8.260;2023-08-24T06:20:44;100601.69;;;22.29;69.25
26657;BME280;14279;50.010;8.260;2023-08-24T06:23:10;100566.13;;;22.21;69.34
26657;BME280;14279;50.010;8.260;2023-08-24T06:25:36;100517.59;;;21.91;71.31
26657;BME280;14279;50.010;8.260;2023-08-24T06:28:01;100485.56;;;21.65;73.05
26657;BME280;14279;50.010;8.260;2023-08-24T06:30:29;100494.88;;;21.69;73.72
26657;BME280;14279;50.010;8.260;2023-08-24T06:32:58;100502.13;;;21.87;73.70
26657;BME280;14279;50.010;8.260;2023-08-24T06:35:23;100499.59;;;21.95;73.26
26657;BME280;14279;50.010;8.260;2023-08-24T06:37:48;100489.56;;;21.99;73.15
26657;BME280;14279;50.010;8.260;2023-08-24T06:40:14;100503.50;;;22.11;73.02
26657;BME280;14279;50.010;8.260;2023-08-24T06:42:39;100532.72;;;22.48;70.77
26657;BME280;14279;50.010;8.260;2023-08-24T06:45:05;100549.47;;;22.49;69.86
26657;BME280;14279;50.010;8.260;2023-08-24T06:47:30;100550.97;;;22.61;69.13
26657;BME280;14279;50.010;8.260;2023-08-24T06:49:55;100539.09;;;22.93;67.47
26657;BME280;14279;50.010;8.260;2023-08-24T06:52:20;100537.88;;;23.16;65.73
26657;BME280;14279;50.010;8.260;2023-08-24T06:54:46;100532.72;;;22.86;65.66
26657;BME280;14279;50.010;8.260;2023-08-24T06:57:13;100521.94;;;22.88;65.82
26657;BME280;14279;50.010;8.260;2023-08-24T06:59:39;100515.13;;;22.85;65.34
26657;BME280;14279;50.010;8.260;2023-08-24T07:02:04;100507.56;;;22.62;65.49
26657;BME280;14279;50.010;8.260;2023-08-24T07:04:30;100495.81;;;22.65;65.72
26657;BME280;14279;50.010;8.260;2023-08-24T07:06:56;100497.97;;;22.79;65.43
26657;BME280;14279;50.010;8.260;2023-08-24T07:09:22;100496.38;;;22.87;65.31
26657;BME280;14279;50.010;8.260;2023-08-24T07:11:48;100507.13;;;22.95;64.79
26657;BME280;14279;50.010;8.260;2023-08-24T07:14:13;100522.34;;;22.93;64.93
26657;BME280;14279;50.010;8.260;2023-08-24T07:16:38;100522.28;;;23.03;65.06
26657;BME280;14279;50.010;8.260;2023-08-24T07:19:04;100530.09;;;22.76;66.17
26657;BME280;14279;50.010;8.260;2023-08-24T07:21:30;100543.28;;;22.68;67.08
26657;BME280;14279;50.010;8.260;2023-08-24T07:23:55;100548.47;;;22.60;67.21
26657;BME280;14279;50.010;8.260;2023-08-24T07:26:22;100545.91;;;22.68;66.91
26657;BME280;14279;50.010;8.260;2023-08-24T07:28:47;100539.72;;;23.05;65.91
26657;BME280;14279;50.010;8.260;2023-08-24T07:31:12;100516.06;;;23.12;65.84
26657;BME280;14279;50.010;8.260;2023-08-24T07:33:38;100514.84;;;23.06;67.07
26657;BME280;14279;50.010;8.260;2023-08-24T07:36:09;100522.53;;;22.81;67.69
26657;BME280;14279;50.010;8.260;2023-08-24T07:38:34;100521.16;;;22.77;68.12
26657;BME280;14279;50.010;8.260;2023-08-24T07:41:00;100490.72;;;23.00;67.51
26657;BME280;14279;50.010;8.260;2023-08-24T07:43:25;100442.06;;;23.09;67.07
26657;BME280;14279;50.010;8.260;2023-08-24T07:45:51;100385.16;;;23.11;67.65
26657;BME280;14279;50.010;8.260;2023-08-24T07:48:31;100422.25;;;22.85;68.06
26657;BME280;14279;50.010;8.260;2023-08-24T07:50:56;100468.59;;;22.63;70.27
26657;BME280;14279;50.010;8.260;2023-08-24T07:53:21;100474.06;;;22.51;71.76
26657;BME280;14279;50.010;8.260;2023-08-24T07:55:46;100469.50;;;22.44;72.15
26657;BME280;14279;50.010;8.260;2023-08-24T07:58:12;100463.44;;;22.51;71.01
26657;BME280;14279;50.010;8.260;2023-08-24T08:00:37;100443.13;;;22.70;71.11
26657;BME280;14279;50.010;8.260;2023-08-24T08:03:03;100418.44;;;22.88;70.11
26657;BME280;14279;50.010;8.260;2023-08-24T08:05:29;100379.41;;;22.98;68.96
26657;BME280;14279;50.010;8.260;2023-08-24T08:07:54;100369.69;;;23.07;68.79
26657;BME280;14279;50.010;8.260;2023-08-24T08:10:21;100390.53;;;23.02;69.48
26657;BME280;14279;50.010;8.260;2023-08-24T08:12:46;100413.84;;;23.08;69.00
26657;BME280;14279;50.010;8.260;2023-08-24T08:15:12;100427.31;;;22.96;68.59
26657;BME280;14279;50.010;8.260;2023-08-24T08:17:37;100428.28;;;22.77;69.06
26657;BME280;14279;50.010;8.260;2023-08-24T08:20:03;100429.66;;;22.81;69.06
26657;BME280;14279;50.010;8.260;2023-08-24T08:22:28;100437.72;;;23.08;68.69
26657;BME280;14279;50.010;8.260;2023-08-24T08:24:54;100466.28;;;23.24;68.07
26657;BME280;14279;50.010;8.260;2023-08-24T08:27:20;100471.28;;;23.27;67.62
26657;BME280;14279;50.010;8.260;2023-08-24T08:29:46;100446.31;;;23.20;67.54
26657;BME280;14279;50.010;8.260;2023-08-24T08:32:11;100431.34;;;23.01;69.10
26657;BME280;14279;50.010;8.260;2023-08-24T08:34:37;100429.31;;;23.12;68.83
26657;BME280;14279;50.010;8.260;2023-08-24T08:37:03;100448.22;;;23.46;68.14
26657;BME280;14279;50.010;8.260;2023-08-24T08:39:28;100449.25;;;23.17;67.05
26657;BME280;14279;50.010;8.260;2023-08-24T08:42:10;100439.47;;;23.17;67.40
26657;BME280;14279;50.010;8.260;2023-08-24T08:44:36;100439.41;;;23.09;67.04
26657;BME280;14279;50.010;8.260;2023-08-24T08:47:01;100433.63;;;23.14;67.12
26657;BME280;14279;50.010;8.260;2023-08-24T08:49:30;100440.47;;;23.52;65.86
26657;BME280;14279;50.010;8.260;2023-08-24T08:52:09;100443.50;;;23.58;65.16
26657;BME280;14279;50.010;8.260;2023-08-24T08:54:35;100432.03;;;23.57;64.63
26657;BME280;14279;50.010;8.260;2023-08-24T09:00:11;100449.88;;;23.91;63.02
26657;BME280;14279;50.010;8.260;2023-08-24T09:02:42;100444.28;;;23.94;62.25
26657;BME280;14279;50.010;8.260;2023-08-24T09:05:08;100436.78;;;24.16;61.12
26657;BME280;14279;50.010;8.260;2023-08-24T09:07:34;100421.25;;;24.46;60.53
26657;BME280;14279;50.010;8.260;2023-08-24T09:10:00;100407.81;;;24.56;60.41
26657;BME280;14279;50.010;8.260;2023-08-24T09:12:25;100409.28;;;24.42;60.23
26657;BME280;14279;50.010;8.260;2023-08-24T09:14:51;100402.94;;;24.35;59.95
26657;BME280;14279;50.010;8.260;2023-08-24T09:17:20;100387.66;;;24.45;60.04
26657;BME280;14279;50.010;8.260;2023-08-24T09:19:50;100380.97;;;24.84;59.14
26657;BME280;14279;50.010;8.260;2023-08-24T09:22:16;100375.28;;;24.70;59.13
26657;BME280;14279;50.010;8.260;2023-08-24T09:24:41;100378.03;;;25.03;57.58
26657;BME280;14279;50.010;8.260;2023-08-24T09:27:17;100376.50;;;25.17;57.49
26657;BME280;14279;50.010;8.260;2023-08-24T09:29:46;100381.34;;;25.22;57.13
26657;BME280;14279;50.010;8.260;2023-08-24T09:32:33;100364.53;;;25.38;57.19
26657;BME280;14279;50.010;8.260;2023-08-24T09:35:09;100360.22;;;25.54;57.22
26657;BME280;14279;50.010;8.260;2023-08-24T09:37:35;100345.03;;;25.54;56.14
26657;BME280;14279;50.010;8.260;2023-08-24T09:40:05;100337.56;;;25.33;57.01
26657;BME280;14279;50.010;8.260;2023-08-24T09:42:40;100334.56;;;25.44;56.59
26657;BME280;14279;50.010;8.260;2023-08-24T09:45:07;100326.56;;;25.36;55.55
26657;BME280;14279;50.010;8.260;2023-08-24T09:47:35;100326.41;;;25.46;55.43
26657;BME280;14279;50.010;8.260;2023-08-24T09:50:01;100322.69;;;25.72;54.54
26657;BME280;14279;50.010;8.260;2023-08-24T09:52:31;100311.81;;;25.81;54.62
26657;BME280;14279;50.010;8.260;2023-08-24T09:55:02;100310.56;;;25.53;55.73
26657;BME280;14279;50.010;8.260;2023-08-24T09:57:32;100309.22;;;25.40;55.99
26657;BME280;14279;50.010;8.260;2023-08-24T09:59:58;100301.59;;;25.45;55.54
26657;BME280;14279;50.010;8.260;2023-08-24T10:02:26;100299.56;;;25.56;55.06
26657;BME280;14279;50.010;8.260;2023-08-24T10:04:55;100299.88;;;26.09;53.96
26657;BME280;14279;50.010;8.260;2023-08-24T10:07:22;100312.94;;;26.35;53.75
26657;BME280;14279;50.010;8.260;2023-08-24T10:10:02;100307.72;;;26.65;52.86
26657;BME280;14279;50.010;8.260;2023-08-24T10:12:28;100314.22;;;26.39;53.02
26657;BME280;14279;50.010;8.260;2023-08-24T10:15:00;100304.63;;;26.30;53.34
26657;BME280;14279;50.010;8.260;2023-08-24T10:17:32;100304.59;;;26.62;52.32
26657;BME280;14279;50.010;8.260;2023-08-24T10:19:59;100298.44;;;26.84;51.90
26657;BME280;14279;50.010;8.260;2023-08-24T10:22:34;100299.84;;;26.95;51.28
26657;BME280;14279;50.010;8.260;2023-08-24T10:24:59;100290.66;;;27.13;50.51
26657;BME280;14279;50.010;8.260;2023-08-24T10:27:27;100288.41;;;26.87;51.21
26657;BME280;14279;50.010;8.260;2023-08-24T10:29:52;100284.00;;;26.94;51.88
26657;BME280;14279;50.010;8.260;2023-08-24T10:32:19;100283.72;;;27.57;49.53
26657;BME280;14279;50.010;8.260;2023-08-24T10:34:46;100277.53;;;27.86;48.47
26657;BME280;14279;50.010;8.260;2023-08-24T10:37:11;100270.56;;;28.07;46.99
26657;BME280;14279;50.010;8.260;2023-08-24T10:39:38;100267.19;;;28.35;46.31
26657;BME280;14279;50.010;8.260;2023-08-24T10:42:10;100257.06;;;28.30;46.22
26657;BME280;14279;50.010;8.260;2023-08-24T10:44:37;100255.34;;;28.08;46.26
26657;BME280;14279;50.010;8.260;2023-08-24T10:47:17;100263.06;;;28.32;45.96
26657;BME280;14279;50.010;8.260;2023-08-24T10:49:45;100259.59;;;28.60;45.94
26657;BME280;14279;50.010;8.260;2023-08-24T10:52:25;100264.88;;;28.54;45.09
26657;BME280;14279;50.010;8.260;2023-08-24T10:54:53;100267.09;;;28.93;44.55
26657;BME280;14279;50.010;8.260;2023-08-24T10:57:20;100274.41;;;28.56;44.89
26657;BME280;14279;50.010;8.260;2023-08-24T11:00:17;100275.53;;;28.25;44.79
26657;BME280;14279;50.010;8.260;2023-08-24T11:02:50;100271.13;;;28.39;45.46
26657;BME280;14279;50.010;8.260;2023-08-24T11:07:52;100263.63;;;29.28;42.91
26657;BME280;14279;50.010;8.260;2023-08-24T11:10:18;100266.00;;;29.09;43.21
26657;BME280;14279;50.010;8.260;2023-08-24T11:20:52;100240.69;;;29.19;43.70
26657;BME280;14279;50.010;8.260;2023-08-24T11:23:19;100231.16;;;29.09;43.60
26657;BME280;14279;50.010;8.260;2023-08-24T11:25:45;100231.59;;;28.85;44.75
26657;BME280;14279;50.010;8.260;2023-08-24T11:28:17;100223.59;;;28.91;43.88
26657;BME280;14279;50.010;8.260;2023-08-24T11:30:44;100210.13;;;28.56;44.50
26657;BME280;14279;50.010;8.260;2023-08-24T11:33:11;100207.44;;;28.28;45.43
26657;BME280;14279;50.010;8.260;2023-08-24T11:35:37;100203.38;;;28.82;45.00
26657;BME280;14279;50.010;8.260;2023-08-24T11:38:04;100194.97;;;29.27;43.86
26657;BME280;14279;50.010;8.260;2023-08-24T11:40:29;100188.13;;;29.18;44.14
26657;BME280;14279;50.010;8.260;2023-08-24T11:42:56;100189.31;;;29.15;44.34
26657;BME280;14279;50.010;8.260;2023-08-24T11:45:22;100193.41;;;29.39;43.97
26657;BME280;14279;50.010;8.260;2023-08-24T11:47:48;100194.13;;;29.20;44.18
26657;BME280;14279;50.010;8.260;2023-08-24T11:50:14;100189.72;;;29.41;43.34
26657;BME280;14279;50.010;8.260;2023-08-24T11:52:40;100192.69;;;28.89;44.70
26657;BME280;14279;50.010;8.260;2023-08-24T11:55:05;100192.31;;;28.70;45.09
26657;BME280;14279;50.010;8.260;2023-08-24T11:57:35;100190.88;;;28.46;46.25
26657;BME280;14279;50.010;8.260;2023-08-24T12:00:05;100187.06;;;29.12;45.10
26657;BME280;14279;50.010;8.260;2023-08-24T12:02:31;100179.22;;;29.10;44.67
26657;BME280;14279;50.010;8.260;2023-08-24T12:04:57;100182.84;;;28.96;45.25
26657;BME280;14279;50.010;8.260;2023-08-24T12:07:22;100174.56;;;28.91;45.41
26657;BME280;14279;50.010;8.260;2023-08-24T12:09:48;100163.38;;;28.80;45.71
26657;BME280;14279;50.010;8.260;2023-08-24T12:12:18;100153.13;;;28.91;44.88
26657;BME280;14279;50.010;8.260;2023-08-24T12:14:49;100146.41;;;28.73;45.66
26657;BME280;14279;50.010;8.260;2023-08-24T12:17:15;100149.66;;;28.69;45.63
26657;BME280;14279;50.010;8.260;2023-08-24T12:20:05;100143.88;;;28.65;45.48
26657;BME280;14279;50.010;8.260;2023-08-24T12:22:31;100137.88;;;28.63;45.92
26657;BME280;14279;50.010;8.260;2023-08-24T12:24:57;100135.81;;;28.58;45.77
26657;BME280;14279;50.010;8.260;2023-08-24T12:27:25;100143.72;;;28.45;46.43
26657;BME280;14279;50.010;8.260;2023-08-24T12:29:51;100136.66;;;28.87;45.54
26657;BME280;14279;50.010;8.260;2023-08-24T12:32:16;100131.22;;;29.16;44.82
26657;BME280;14279;50.010;8.260;2023-08-24T12:34:45;100122.81;;;29.32;44.52
26657;BME280;14279;50.010;8.260;2023-08-24T12:37:10;100131.44;;;29.21;44.44
26657;BME280;14279;50.010;8.260;2023-08-24T12:39:36;100135.47;;;29.45;44.26
26657;BME280;14279;50.010;8.260;2023-08-24T12:42:03;100145.00;;;29.54;43.54
26657;BME280;14279;50.010;8.260;2023-08-24T12:44:28;100148.16;;;29.72;43.19
26657;BME280;14279;50.010;8.260;2023-08-24T12:46:53;100151.41;;;29.53;43.01
26657;BME280;14279;50.010;8.260;2023-08-24T12:49:19;100154.16;;;29.80;42.45
26657;BME280;14279;50.010;8.260;2023-08-24T12:51:44;100162.69;;;30.04;41.76
26657;BME280;14279;50.010;8.260;2023-08-24T12:54:09;100163.88;;;29.95;41.88
26657;BME280;14279;50.010;8.260;2023-08-24T12:56:34;100175.31;;;29.55;41.46
26657;BME280;14279;50.010;8.260;2023-08-24T12:59:00;100169.53;;;29.51;42.25
26657;BME280;14279;50.010;8.260;2023-08-24T13:01:25;100165.84;;;29.59;41.42
26657;BME280;14279;50.010;8.260;2023-08-24T13:03:51;100143.53;;;29.45;42.29
26657;BME280;14279;50.010;8.260;2023-08-24T13:06:16;100145.91;;;29.27;42.51
26657;BME280;14279;50.010;8.260;2023-08-24T13:08:41;100147.97;;;29.31;42.09
26657;BME280;14279;50.010;8.260;2023-08-24T13:11:06;100153.44;;;29.45;41.45
26657;BME280;14279;50.010;8.260;2023-08-24T13:13:32;100156.66;;;29.33;41.39
26657;BME280;14279;50.010;8.260;2023-08-24T13:15:57;100160.47;;;29.59;40.83
26657;BME280;14279;50.010;8.260;2023-08-24T13:18:22;100164.81;;;29.53;40.56
26657;BME280;14279;50.010;8.260;2023-08-24T13:20:47;100177.75;;;29.50;41.75
26657;BME280;14279;50.010;8.260;2023-08-24T13:23:12;100174.66;;;29.46;41.63
26657;BME280;14279;50.010;8.260;2023-08-24T13:25:38;100175.66;;;29.03;43.20
26657;BME280;14279;50.010;8.260;2023-08-24T13:28:03;100180.09;;;29.18;43.26
26657;BME280;14279;50.010;8.260;2023-08-24T13:30:29;100186.06;;;28.85;44.70
26657;BME280;14279;50.010;8.260;2023-08-24T13:32:54;100203.47;;;28.45;45.72
26657;BME280;14279;50.010;8.260;2023-08-24T13:35:19;100219.94;;;28.49;46.10
26657;BME280;14279;50.010;8.260;2023-08-24T13:37:44;100224.53;;;28.77;45.36
26657;BME280;14279;50.010;8.260;2023-08-24T13:40:10;100230.53;;;28.57;45.17
26657;BME280;14279;50.010;8.260;2023-08-24T13:42:35;100225.94;;;28.51;45.58
26657;BME280;14279;50.010;8.260;2023-08-24T13:45:01;100231.50;;;28.49;45.24
26657;BME280;14279;50.010;8.260;2023-08-24T13:47:26;100255.47;;;28.36;46.03